sensor_id;sensor_type;location;lat;lon;timestamp;P1;durP1;ratioP1;P2;durP2;ratioP2
19836;SDS011;10079;55.740;37.662;2022-08-21T00:02:23;52.43;;;34.97;;
19836;SDS011;10079;55.740;37.662;2022-08-21T00:05:07;45.30;;;33.30;;
19836;SDS011;10079;55.740;37.662;2022-08-21T00:07:51;48.03;;;33.07;;
19836;SDS011;10079;55.740;37.662;2022-08-21T00:10:32;49.83;;;34.53;;
19836;SDS011;10079;55.740;37.662;2022-08-21T00:13:13;46.90;;;33.43;;
19836;SDS011;10079;55.740;37.662;2022-08-21T00:15:54;46.00;;;33.47;;
19836;SDS011;10079;55.740;37.662;2022-08-21T00:18:36;48.43;;;33.67;;
19836;SDS011;10079;55.740;37.662;2022-08-21T00:21:20;46.80;;;34.17;;
19836;SDS011;10079;55.740;37.662;2022-08-21T00:24:00;49.57;;;35.50;;
19836;SDS011;10079;55.740;37.662;2022-08-21T00:26:42;48.23;;;34.40;;
19836;SDS011;10079;55.740;37.662;2022-08-21T00:29:22;46.80;;;33.77;;
19836;SDS011;10079;55.740;37.662;2022-08-21T00:32:04;47.37;;;33.67;;
19836;SDS011;10079;55.740;37.662;2022-08-21T00:34:48;49.40;;;34.10;;
19836;SDS011;10079;55.740;37.662;2022-08-21T00:37:29;45.87;;;33.77;;
19836;SDS011;10079;55.740;37.662;2022-08-21T00:40:11;49.37;;;33.93;;
19836;SDS011;10079;55.740;37.662;2022-08-21T00:42:54;47.77;;;33.67;;
19836;SDS011;10079;55.740;37.662;2022-08-21T00:45:34;46.20;;;33.17;;
19836;SDS011;10079;55.740;37.662;2022-08-21T00:48:19;47.37;;;33.37;;
19836;SDS011;10079;55.740;37.662;2022-08-21T00:51:03;46.53;;;32.23;;
19836;SDS011;10079;55.740;37.662;2022-08-21T00:53:46;46.80;;;32.20;;
19836;SDS011;10079;55.740;37.662;2022-08-21T00:56:39;43.97;;;31.80;;
19836;SDS011;10079;55.740;37.662;2022-08-21T00:59:20;41.97;;;31.60;;
19836;SDS011;10079;55.740;37.662;2022-08-21T01:02:01;41.53;;;31.10;;
19836;SDS011;10079;55.740;37.662;2022-08-21T01:04:42;46.27;;;32.20;;
19836;SDS011;10079;55.740;37.662;2022-08-21T01:07:23;47.23;;;30.80;;
19836;SDS011;10079;55.740;37.662;2022-08-21T01:10:05;43.37;;;30.43;;
19836;SDS011;10079;55.740;37.662;2022-08-21T01:12:45;49.83;;;31.47;;
19836;SDS011;10079;55.740;37.662;2022-08-21T01:15:32;47.23;;;32.33;;
19836;SDS011;10079;55.740;37.662;2022-08-21T01:18:13;43.30;;;30.60;;
19836;SDS011;10079;55.740;37.662;2022-08-21T01:23:42;41.80;;;29.03;;
19836;SDS011;10079;55.740;37.662;2022-08-21T01:26:23;36.60;;;27.37;;
19836;SDS011;10079;55.740;37.662;2022-08-21T01:29:05;37.90;;;26.43;;
19836;SDS011;10079;55.740;37.662;2022-08-21T01:31:50;42.70;;;29.93;;
19836;SDS011;10079;55.740;37.662;2022-08-21T01:34:31;39.97;;;29.37;;
19836;SDS011;10079;55.740;37.662;2022-08-21T01:37:12;41.87;;;28.60;;
19836;SDS011;10079;55.740;37.662;2022-08-21T01:39:52;37.33;;;27.97;;
19836;SDS011;10079;55.740;37.662;2022-08-21T01:42:34;43.97;;;27.87;;
19836;SDS011;10079;55.740;37.662;2022-08-21T01:45:15;38.70;;;28.17;;
19836;SDS011;10079;55.740;37.662;2022-08-21T01:47:56;39.73;;;28.43;;
19836;SDS011;10079;55.740;37.662;2022-08-21T01:50:37;41.50;;;28.07;;
19836;SDS011;10079;55.740;37.662;2022-08-21T01:53:26;41.43;;;26.53;;
19836;SDS011;10079;55.740;37.662;2022-08-21T01:56:11;37.97;;;27.27;;
19836;SDS011;10079;55.740;37.662;2022-08-21T02:20:30;37.50;;;26.27;;
19836;SDS011;10079;55.740;37.662;2022-08-21T02:23:14;39.23;;;28.30;;
19836;SDS011;10079;55.740;37.662;2022-08-21T02:25:58;41.17;;;27.63;;
19836;SDS011;10079;55.740;37.662;2022-08-21T02:28:51;37.30;;;27.07;;
19836;SDS011;10079;55.740;37.662;2022-08-21T02:31:31;40.13;;;27.00;;
19836;SDS011;10079;55.740;37.662;2022-08-21T02:34:16;41.83;;;27.17;;
19836;SDS011;10079;55.740;37.662;2022-08-21T02:37:06;41.27;;;26.07;;
19836;SDS011;10079;55.740;37.662;2022-08-21T02:39:59;40.60;;;27.37;;
19836;SDS011;10079;55.740;37.662;2022-08-21T02:42:51;39.27;;;26.97;;
19836;SDS011;10079;55.740;37.662;2022-08-21T02:45:44;38.50;;;27.07;;
19836;SDS011;10079;55.740;37.662;2022-08-21T02:48:29;37.80;;;27.23;;
19836;SDS011;10079;55.740;37.662;2022-08-21T02:51:21;39.10;;;28.70;;
19836;SDS011;10079;55.740;37.662;2022-08-21T02:54:05;38.73;;;26.43;;
19836;SDS011;10079;55.740;37.662;2022-08-21T02:56:45;44.20;;;27.20;;
19836;SDS011;10079;55.740;37.662;2022-08-21T02:59:26;37.47;;;26.80;;
19836;SDS011;10079;55.740;37.662;2022-08-21T03:02:07;39.43;;;27.27;;
19836;SDS011;10079;55.740;37.662;2022-08-21T03:04:59;42.50;;;28.20;;
19836;SDS011;10079;55.740;37.662;2022-08-21T03:07:44;38.60;;;27.77;;
19836;SDS011;10079;55.740;37.662;2022-08-21T03:10:27;41.33;;;28.90;;
19836;SDS011;10079;55.740;37.662;2022-08-21T03:13:11;37.63;;;28.50;;
19836;SDS011;10079;55.740;37.662;2022-08-21T03:15:51;39.90;;;29.33;;
19836;SDS011;10079;55.740;37.662;2022-08-21T03:18:36;42.10;;;29.30;;
19836;SDS011;10079;55.740;37.662;2022-08-21T03:21:16;41.80;;;28.90;;
19836;SDS011;10079;55.740;37.662;2022-08-21T03:23:57;40.03;;;29.03;;
19836;SDS011;10079;55.740;37.662;2022-08-21T03:26:38;38.73;;;27.30;;
19836;SDS011;10079;55.740;37.662;2022-08-21T03:29:22;42.63;;;28.53;;
19836;SDS011;10079;55.740;37.662;2022-08-21T03:32:06;40.77;;;28.63;;
19836;SDS011;10079;55.740;37.662;2022-08-21T03:55:51;42.00;;;30.33;;
19836;SDS011;10079;55.740;37.662;2022-08-21T03:58:32;43.13;;;30.43;;
19836;SDS011;10079;55.740;37.662;2022-08-21T04:01:13;41.43;;;30.40;;
19836;SDS011;10079;55.740;37.662;2022-08-21T04:03:54;41.90;;;30.80;;
19836;SDS011;10079;55.740;37.662;2022-08-21T04:06:38;38.53;;;31.47;;
19836;SDS011;10079;55.740;37.662;2022-08-21T04:09:19;41.63;;;30.17;;
19836;SDS011;10079;55.740;37.662;2022-08-21T04:12:00;47.57;;;32.57;;
19836;SDS011;10079;55.740;37.662;2022-08-21T04:14:44;45.73;;;33.03;;
19836;SDS011;10079;55.740;37.662;2022-08-21T04:17:25;44.80;;;31.43;;
19836;SDS011;10079;55.740;37.662;2022-08-21T04:20:06;49.63;;;33.57;;
19836;SDS011;10079;55.740;37.662;2022-08-21T04:22:48;47.83;;;33.67;;
19836;SDS011;10079;55.740;37.662;2022-08-21T04:25:29;45.80;;;33.17;;
19836;SDS011;10079;55.740;37.662;2022-08-21T04:28:10;44.63;;;34.13;;
19836;SDS011;10079;55.740;37.662;2022-08-21T04:30:50;41.87;;;31.97;;
19836;SDS011;10079;55.740;37.662;2022-08-21T04:33:31;50.20;;;33.47;;
19836;SDS011;10079;55.740;37.662;2022-08-21T04:36:12;46.80;;;33.73;;
19836;SDS011;10079;55.740;37.662;2022-08-21T04:38:56;50.73;;;35.07;;
19836;SDS011;10079;55.740;37.662;2022-08-21T04:41:36;46.43;;;35.03;;
19836;SDS011;10079;55.740;37.662;2022-08-21T04:44:17;49.97;;;35.70;;
19836;SDS011;10079;55.740;37.662;2022-08-21T04:47:01;47.07;;;34.53;;
19836;SDS011;10079;55.740;37.662;2022-08-21T04:49:42;49.43;;;37.30;;
19836;SDS011;10079;55.740;37.662;2022-08-21T04:52:26;50.50;;;37.43;;
19836;SDS011;10079;55.740;37.662;2022-08-21T04:55:08;50.43;;;36.93;;
19836;SDS011;10079;55.740;37.662;2022-08-21T05:29:57;45.05;;;38.63;;
19836;SDS011;10079;55.740;37.662;2022-08-21T05:32:37;44.83;;;38.80;;
19836;SDS011;10079;55.740;37.662;2022-08-21T05:35:30;46.28;;;36.85;;
19836;SDS011;10079;55.740;37.662;2022-08-21T05:38:11;46.47;;;37.65;;
19836;SDS011;10079;55.740;37.662;2022-08-21T05:40:51;44.30;;;36.20;;
19836;SDS011;10079;55.740;37.662;2022-08-21T05:43:36;43.85;;;37.15;;
19836;SDS011;10079;55.740;37.662;2022-08-21T05:46:28;44.63;;;37.63;;
19836;SDS011;10079;55.740;37.662;2022-08-21T05:49:12;43.25;;;36.25;;
19836;SDS011;10079;55.740;37.662;2022-08-21T05:51:53;44.55;;;38.13;;
19836;SDS011;10079;55.740;37.662;2022-08-21T05:54:35;48.67;;;37.65;;
19836;SDS011;10079;55.740;37.662;2022-08-21T05:57:15;44.20;;;35.47;;
19836;SDS011;10079;55.740;37.662;2022-08-21T05:59:59;48.58;;;37.33;;
19836;SDS011;10079;55.740;37.662;2022-08-21T06:02:40;43.45;;;37.88;;
19836;SDS011;10079;55.740;37.662;2022-08-21T06:05:33;40.92;;;34.97;;
19836;SDS011;10079;55.740;37.662;2022-08-21T06:08:23;44.33;;;36.45;;
19836;SDS011;10079;55.740;37.662;2022-08-21T06:11:03;40.45;;;35.55;;
19836;SDS011;10079;55.740;37.662;2022-08-21T06:13:48;46.67;;;35.63;;
19836;SDS011;10079;55.740;37.662;2022-08-21T06:16:29;44.28;;;35.58;;
19836;SDS011;10079;55.740;37.662;2022-08-21T06:19:09;45.35;;;35.40;;
19836;SDS011;10079;55.740;37.662;2022-08-21T06:21:50;43.70;;;36.13;;
19836;SDS011;10079;55.740;37.662;2022-08-21T06:24:34;45.97;;;36.35;;
19836;SDS011;10079;55.740;37.662;2022-08-21T06:27:15;44.80;;;36.95;;
19836;SDS011;10079;55.740;37.662;2022-08-21T06:29:55;46.47;;;35.88;;
19836;SDS011;10079;55.740;37.662;2022-08-21T06:32:36;47.95;;;37.05;;
19836;SDS011;10079;55.740;37.662;2022-08-21T06:35:21;48.38;;;35.95;;
19836;SDS011;10079;55.740;37.662;2022-08-21T06:38:03;40.17;;;34.25;;
19836;SDS011;10079;55.740;37.662;2022-08-21T06:40:43;40.63;;;33.95;;
19836;SDS011;10079;55.740;37.662;2022-08-21T06:43:24;45.25;;;34.38;;
19836;SDS011;10079;55.740;37.662;2022-08-21T06:46:06;43.28;;;35.30;;
19836;SDS011;10079;55.740;37.662;2022-08-21T06:48:50;41.37;;;31.95;;
19836;SDS011;10079;55.740;37.662;2022-08-21T06:51:30;45.58;;;33.10;;
19836;SDS011;10079;55.740;37.662;2022-08-21T06:54:11;38.03;;;32.85;;
19836;SDS011;10079;55.740;37.662;2022-08-21T06:56:52;38.50;;;33.42;;
19836;SDS011;10079;55.740;37.662;2022-08-21T06:59:32;41.22;;;32.97;;
19836;SDS011;10079;55.740;37.662;2022-08-21T07:02:13;37.40;;;31.83;;
19836;SDS011;10079;55.740;37.662;2022-08-21T07:04:54;36.85;;;32.05;;
19836;SDS011;10079;55.740;37.662;2022-08-21T07:07:35;39.63;;;32.80;;
19836;SDS011;10079;55.740;37.662;2022-08-21T07:10:15;39.40;;;32.80;;
19836;SDS011;10079;55.740;37.662;2022-08-21T07:13:00;38.75;;;32.35;;
19836;SDS011;10079;55.740;37.662;2022-08-21T07:15:40;41.15;;;32.63;;
19836;SDS011;10079;55.740;37.662;2022-08-21T07:18:33;38.22;;;32.28;;
19836;SDS011;10079;55.740;37.662;2022-08-21T07:21:14;39.97;;;32.63;;
19836;SDS011;10079;55.740;37.662;2022-08-21T07:23:54;39.95;;;33.72;;
19836;SDS011;10079;55.740;37.662;2022-08-21T07:26:35;40.45;;;33.80;;
19836;SDS011;10079;55.740;37.662;2022-08-21T07:29:16;41.15;;;31.75;;
19836;SDS011;10079;55.740;37.662;2022-08-21T07:42:29;36.45;;;31.67;;
19836;SDS011;10079;55.740;37.662;2022-08-21T07:45:11;40.12;;;31.45;;
19836;SDS011;10079;55.740;37.662;2022-08-21T07:47:52;40.45;;;31.92;;
19836;SDS011;10079;55.740;37.662;2022-08-21T07:50:42;36.08;;;31.20;;
19836;SDS011;10079;55.740;37.662;2022-08-21T07:53:31;40.28;;;31.58;;
19836;SDS011;10079;55.740;37.662;2022-08-21T08:06:59;31.40;;;25.02;;
19836;SDS011;10079;55.740;37.662;2022-08-21T08:09:48;33.10;;;24.12;;
19836;SDS011;10079;55.740;37.662;2022-08-21T08:12:41;26.52;;;22.90;;
19836;SDS011;10079;55.740;37.662;2022-08-21T08:15:34;27.50;;;21.62;;
19836;SDS011;10079;55.740;37.662;2022-08-21T08:18:14;26.58;;;22.20;;
19836;SDS011;10079;55.740;37.662;2022-08-21T08:31:30;25.85;;;21.80;;
19836;SDS011;10079;55.740;37.662;2022-08-21T08:34:24;26.40;;;21.02;;
19836;SDS011;10079;55.740;37.662;2022-08-21T08:37:08;30.25;;;22.00;;
19836;SDS011;10079;55.740;37.662;2022-08-21T08:39:52;24.08;;;19.58;;
19836;SDS011;10079;55.740;37.662;2022-08-21T08:42:34;25.60;;;18.35;;
19836;SDS011;10079;55.740;37.662;2022-08-21T08:45:18;21.67;;;17.60;;
19836;SDS011;10079;55.740;37.662;2022-08-21T08:48:01;25.80;;;18.73;;
19836;SDS011;10079;55.740;37.662;2022-08-21T08:50:47;28.98;;;19.55;;
19836;SDS011;10079;55.740;37.662;2022-08-21T08:53:30;20.45;;;16.08;;
19836;SDS011;10079;55.740;37.662;2022-08-21T08:56:22;18.40;;;14.55;;
19836;SDS011;10079;55.740;37.662;2022-08-21T08:59:08;19.05;;;15.45;;
19836;SDS011;10079;55.740;37.662;2022-08-21T09:01:48;23.52;;;16.50;;
19836;SDS011;10079;55.740;37.662;2022-08-21T09:04:32;17.95;;;13.48;;
19836;SDS011;10079;55.740;37.662;2022-08-21T09:07:22;19.17;;;13.40;;
19836;SDS011;10079;55.740;37.662;2022-08-21T09:10:12;16.60;;;13.77;;
19836;SDS011;10079;55.740;37.662;2022-08-21T09:19:07;20.45;;;15.07;;
19836;SDS011;10079;55.740;37.662;2022-08-21T09:22:08;23.67;;;15.88;;
19836;SDS011;10079;55.740;37.662;2022-08-21T09:25:22;19.33;;;14.77;;
19836;SDS011;10079;55.740;37.662;2022-08-21T09:28:09;18.50;;;14.77;;
19836;SDS011;10079;55.740;37.662;2022-08-21T09:30:50;23.25;;;14.50;;
19836;SDS011;10079;55.740;37.662;2022-08-21T09:33:34;17.92;;;13.75;;
19836;SDS011;10079;55.740;37.662;2022-08-21T09:39:03;21.02;;;13.90;;
19836;SDS011;10079;55.740;37.662;2022-08-21T09:41:44;15.98;;;13.38;;
19836;SDS011;10079;55.740;37.662;2022-08-21T09:44:26;18.17;;;13.27;;
19836;SDS011;10079;55.740;37.662;2022-08-21T09:57:36;17.60;;;13.57;;
19836;SDS011;10079;55.740;37.662;2022-08-21T10:00:27;20.15;;;13.48;;
19836;SDS011;10079;55.740;37.662;2022-08-21T10:03:12;19.33;;;13.48;;
19836;SDS011;10079;55.740;37.662;2022-08-21T10:05:58;18.33;;;13.65;;
19836;SDS011;10079;55.740;37.662;2022-08-21T10:08:37;17.85;;;12.82;;
19836;SDS011;10079;55.740;37.662;2022-08-21T10:11:18;18.37;;;13.80;;
19836;SDS011;10079;55.740;37.662;2022-08-21T10:14:11;14.43;;;11.93;;
19836;SDS011;10079;55.740;37.662;2022-08-21T10:17:00;13.82;;;10.10;;
19836;SDS011;10079;55.740;37.662;2022-08-21T10:19:43;16.37;;;9.70;;
19836;SDS011;10079;55.740;37.662;2022-08-21T10:22:34;11.43;;;8.32;;
19836;SDS011;10079;55.740;37.662;2022-08-21T10:25:43;11.18;;;8.48;;
19836;SDS011;10079;55.740;37.662;2022-08-21T10:28:32;11.23;;;8.63;;
19836;SDS011;10079;55.740;37.662;2022-08-21T10:31:23;11.07;;;7.95;;
19836;SDS011;10079;55.740;37.662;2022-08-21T10:34:06;12.95;;;9.38;;
19836;SDS011;10079;55.740;37.662;2022-08-21T10:36:45;13.07;;;9.38;;
19836;SDS011;10079;55.740;37.662;2022-08-21T10:39:31;14.35;;;9.25;;
19836;SDS011;10079;55.740;37.662;2022-08-21T10:42:25;12.20;;;8.30;;
19836;SDS011;10079;55.740;37.662;2022-08-21T10:45:22;15.45;;;8.90;;
19836;SDS011;10079;55.740;37.662;2022-08-21T10:48:03;13.00;;;8.10;;
19836;SDS011;10079;55.740;37.662;2022-08-21T10:50:48;10.60;;;7.20;;
19836;SDS011;10079;55.740;37.662;2022-08-21T10:53:44;10.15;;;5.75;;
19836;SDS011;10079;55.740;37.662;2022-08-21T10:56:30;9.40;;;5.90;;
19836;SDS011;10079;55.740;37.662;2022-08-21T11:13:14;12.90;;;6.72;;
19836;SDS011;10079;55.740;37.662;2022-08-21T11:16:09;11.48;;;7.12;;
19836;SDS011;10079;55.740;37.662;2022-08-21T11:29:39;13.68;;;8.85;;
19836;SDS011;10079;55.740;37.662;2022-08-21T11:41:37;16.05;;;11.10;;
19836;SDS011;10079;55.740;37.662;2022-08-21T11:50:33;18.60;;;11.35;;
19836;SDS011;10079;55.740;37.662;2022-08-21T11:53:24;19.17;;;11.52;;
19836;SDS011;10079;55.740;37.662;2022-08-21T11:56:10;13.93;;;10.25;;
19836;SDS011;10079;55.740;37.662;2022-08-21T11:59:11;15.38;;;10.73;;
19836;SDS011;10079;55.740;37.662;2022-08-21T12:01:51;16.25;;;10.75;;
19836;SDS011;10079;55.740;37.662;2022-08-21T12:04:34;16.12;;;10.40;;
19836;SDS011;10079;55.740;37.662;2022-08-21T12:07:30;14.70;;;10.43;;
19836;SDS011;10079;55.740;37.662;2022-08-21T12:10:15;13.77;;;10.15;;
19836;SDS011;10079;55.740;37.662;2022-08-21T12:23:30;16.80;;;9.68;;
19836;SDS011;10079;55.740;37.662;2022-08-21T12:26:16;12.68;;;8.82;;
19836;SDS011;10079;55.740;37.662;2022-08-21T12:29:04;12.25;;;8.90;;
19836;SDS011;10079;55.740;37.662;2022-08-21T12:31:47;12.57;;;8.82;;
19836;SDS011;10079;55.740;37.662;2022-08-21T12:34:34;12.98;;;8.82;;
19836;SDS011;10079;55.740;37.662;2022-08-21T12:37:20;11.82;;;8.13;;
19836;SDS011;10079;55.740;37.662;2022-08-21T12:40:11;11.98;;;7.68;;
19836;SDS011;10079;55.740;37.662;2022-08-21T12:43:00;8.95;;;7.75;;
19836;SDS011;10079;55.740;37.662;2022-08-21T12:45:42;15.55;;;8.02;;
19836;SDS011;10079;55.740;37.662;2022-08-21T12:48:22;13.48;;;8.20;;
19836;SDS011;10079;55.740;37.662;2022-08-21T12:51:22;11.32;;;8.80;;
19836;SDS011;10079;55.740;37.662;2022-08-21T12:54:03;12.37;;;8.30;;
19836;SDS011;10079;55.740;37.662;2022-08-21T12:56:44;12.85;;;8.57;;
19836;SDS011;10079;55.740;37.662;2022-08-21T12:59:37;11.40;;;7.68;;
19836;SDS011;10079;55.740;37.662;2022-08-21T13:02:18;10.70;;;6.97;;
19836;SDS011;10079;55.740;37.662;2022-08-21T13:05:12;11.82;;;6.47;;
19836;SDS011;10079;55.740;37.662;2022-08-21T13:07:51;10.75;;;6.75;;
19836;SDS011;10079;55.740;37.662;2022-08-21T13:10:32;9.15;;;5.65;;
19836;SDS011;10079;55.740;37.662;2022-08-21T13:13:17;10.13;;;6.53;;
19836;SDS011;10079;55.740;37.662;2022-08-21T13:15:58;9.45;;;6.55;;
19836;SDS011;10079;55.740;37.662;2022-08-21T13:21:33;13.62;;;7.40;;
19836;SDS011;10079;55.740;37.662;2022-08-21T13:24:19;14.10;;;7.50;;
19836;SDS011;10079;55.740;37.662;2022-08-21T13:27:02;10.15;;;7.68;;
19836;SDS011;10079;55.740;37.662;2022-08-21T13:29:43;12.80;;;8.63;;
19836;SDS011;10079;55.740;37.662;2022-08-21T13:32:24;10.63;;;8.13;;
19836;SDS011;10079;55.740;37.662;2022-08-21T13:45:43;16.37;;;9.15;;
19836;SDS011;10079;55.740;37.662;2022-08-21T13:48:21;16.80;;;8.82;;
19836;SDS011;10079;55.740;37.662;2022-08-21T13:51:03;12.63;;;7.85;;
19836;SDS011;10079;55.740;37.662;2022-08-21T13:53:49;12.15;;;7.53;;
19836;SDS011;10079;55.740;37.662;2022-08-21T13:56:43;10.30;;;7.20;;
19836;SDS011;10079;55.740;37.662;2022-08-21T14:10:15;10.52;;;6.22;;
19836;SDS011;10079;55.740;37.662;2022-08-21T14:12:59;8.55;;;6.07;;
19836;SDS011;10079;55.740;37.662;2022-08-21T14:15:42;8.55;;;5.53;;
19836;SDS011;10079;55.740;37.662;2022-08-21T14:18:22;10.93;;;6.03;;
19836;SDS011;10079;55.740;37.662;2022-08-21T14:31:55;7.28;;;5.55;;
19836;SDS011;10079;55.740;37.662;2022-08-21T14:34:39;6.15;;;4.47;;
19836;SDS011;10079;55.740;37.662;2022-08-21T14:37:40;9.15;;;4.00;;
19836;SDS011;10079;55.740;37.662;2022-08-21T14:40:30;5.22;;;3.72;;
19836;SDS011;10079;55.740;37.662;2022-08-21T14:43:23;7.70;;;3.37;;
19836;SDS011;10079;55.740;37.662;2022-08-21T14:46:07;4.12;;;3.67;;
19836;SDS011;10079;55.740;37.662;2022-08-21T14:49:01;3.87;;;2.80;;
19836;SDS011;10079;55.740;37.662;2022-08-21T14:51:53;7.30;;;2.97;;
19836;SDS011;10079;55.740;37.662;2022-08-21T14:54:37;6.18;;;2.67;;
19836;SDS011;10079;55.740;37.662;2022-08-21T14:57:31;3.53;;;2.25;;
19836;SDS011;10079;55.740;37.662;2022-08-21T15:00:20;7.40;;;2.28;;
19836;SDS011;10079;55.740;37.662;2022-08-21T15:03:00;4.60;;;2.42;;
19836;SDS011;10079;55.740;37.662;2022-08-21T15:05:44;4.28;;;2.20;;
19836;SDS011;10079;55.740;37.662;2022-08-21T15:08:36;5.05;;;2.12;;
19836;SDS011;10079;55.740;37.662;2022-08-21T15:11:21;3.17;;;1.90;;
19836;SDS011;10079;55.740;37.662;2022-08-21T15:14:03;4.55;;;1.62;;
19836;SDS011;10079;55.740;37.662;2022-08-21T15:16:47;3.87;;;2.20;;
19836;SDS011;10079;55.740;37.662;2022-08-21T15:19:30;5.30;;;2.40;;
19836;SDS011;10079;55.740;37.662;2022-08-21T15:22:12;4.70;;;1.92;;
19836;SDS011;10079;55.740;37.662;2022-08-21T15:24:56;4.32;;;2.00;;
19836;SDS011;10079;55.740;37.662;2022-08-21T15:27:37;3.00;;;2.75;;
19836;SDS011;10079;55.740;37.662;2022-08-21T15:30:18;3.30;;;1.83;;
19836;SDS011;10079;55.740;37.662;2022-08-21T15:32:59;4.03;;;1.50;;
19836;SDS011;10079;55.740;37.662;2022-08-21T15:35:40;3.60;;;1.85;;
19836;SDS011;10079;55.740;37.662;2022-08-21T15:38:24;7.10;;;2.10;;
19836;SDS011;10079;55.740;37.662;2022-08-21T15:41:08;5.00;;;1.50;;
19836;SDS011;10079;55.740;37.662;2022-08-21T15:43:50;4.05;;;2.03;;
19836;SDS011;10079;55.740;37.662;2022-08-21T15:46:30;3.97;;;1.77;;
19836;SDS011;10079;55.740;37.662;2022-08-21T15:49:11;2.92;;;1.55;;
19836;SDS011;10079;55.740;37.662;2022-08-21T15:51:51;5.45;;;2.17;;
19836;SDS011;10079;55.740;37.662;2022-08-21T15:54:32;2.08;;;1.60;;
19836;SDS011;10079;55.740;37.662;2022-08-21T15:57:13;4.65;;;1.75;;
19836;SDS011;10079;55.740;37.662;2022-08-21T15:59:54;1.87;;;1.73;;
19836;SDS011;10079;55.740;37.662;2022-08-21T16:02:47;4.25;;;1.87;;
19836;SDS011;10079;55.740;37.662;2022-08-21T16:05:27;5.07;;;1.80;;
19836;SDS011;10079;55.740;37.662;2022-08-21T16:08:08;5.60;;;1.70;;
19836;SDS011;10079;55.740;37.662;2022-08-21T16:10:48;6.53;;;2.03;;
19836;SDS011;10079;55.740;37.662;2022-08-21T16:13:39;2.53;;;1.55;;
19836;SDS011;10079;55.740;37.662;2022-08-21T16:16:19;3.60;;;1.73;;
19836;SDS011;10079;55.740;37.662;2022-08-21T16:18:59;2.80;;;1.60;;
19836;SDS011;10079;55.740;37.662;2022-08-21T16:21:43;3.97;;;1.70;;
19836;SDS011;10079;55.740;37.662;2022-08-21T16:24:24;3.57;;;1.80;;
19836;SDS011;10079;55.740;37.662;2022-08-21T16:27:14;4.47;;;2.00;;
19836;SDS011;10079;55.740;37.662;2022-08-21T16:29:55;4.43;;;2.47;;
19836;SDS011;10079;55.740;37.662;2022-08-21T16:32:35;5.17;;;2.77;;
19836;SDS011;10079;55.740;37.662;2022-08-21T16:35:29;3.30;;;2.83;;
19836;SDS011;10079;55.740;37.662;2022-08-21T16:38:18;7.20;;;3.97;;
19836;SDS011;10079;55.740;37.662;2022-08-21T16:40:59;6.80;;;5.57;;
19836;SDS011;10079;55.740;37.662;2022-08-21T16:43:40;15.90;;;8.97;;
19836;SDS011;10079;55.740;37.662;2022-08-21T16:46:21;15.27;;;11.60;;
19836;SDS011;10079;55.740;37.662;2022-08-21T16:49:02;22.60;;;17.30;;
19836;SDS011;10079;55.740;37.662;2022-08-21T16:51:42;23.93;;;19.77;;
19836;SDS011;10079;55.740;37.662;2022-08-21T16:54:31;25.80;;;21.12;;
19836;SDS011;10079;55.740;37.662;2022-08-21T16:57:21;34.80;;;26.87;;
19836;SDS011;10079;55.740;37.662;2022-08-21T17:00:06;34.83;;;28.63;;
19836;SDS011;10079;55.740;37.662;2022-08-21T17:13:35;39.90;;;34.72;;
19836;SDS011;10079;55.740;37.662;2022-08-21T17:16:21;41.10;;;36.23;;
19836;SDS011;10079;55.740;37.662;2022-08-21T17:19:05;43.70;;;35.87;;
19836;SDS011;10079;55.740;37.662;2022-08-21T17:21:58;41.30;;;34.70;;
19836;SDS011;10079;55.740;37.662;2022-08-21T17:24:48;38.07;;;33.87;;
19836;SDS011;10079;55.740;37.662;2022-08-21T17:27:29;36.67;;;32.67;;
19836;SDS011;10079;55.740;37.662;2022-08-21T17:30:10;36.63;;;29.87;;
19836;SDS011;10079;55.740;37.662;2022-08-21T17:32:53;36.63;;;31.00;;
19836;SDS011;10079;55.740;37.662;2022-08-21T17:35:34;36.90;;;31.17;;
19836;SDS011;10079;55.740;37.662;2022-08-21T17:38:18;33.07;;;29.40;;
19836;SDS011;10079;55.740;37.662;2022-08-21T17:41:11;35.67;;;30.43;;
19836;SDS011;10079;55.740;37.662;2022-08-21T17:44:02;35.60;;;31.70;;
19836;SDS011;10079;55.740;37.662;2022-08-21T17:46:47;38.73;;;31.73;;
19836;SDS011;10079;55.740;37.662;2022-08-21T17:49:32;35.77;;;31.53;;
19836;SDS011;10079;55.740;37.662;2022-08-21T17:52:16;38.07;;;32.17;;
19836;SDS011;10079;55.740;37.662;2022-08-21T17:55:00;36.10;;;31.73;;
19836;SDS011;10079;55.740;37.662;2022-08-21T17:57:52;35.67;;;30.90;;
19836;SDS011;10079;55.740;37.662;2022-08-21T18:00:45;36.67;;;30.17;;
19836;SDS011;10079;55.740;37.662;2022-08-21T18:03:26;34.23;;;29.40;;
19836;SDS011;10079;55.740;37.662;2022-08-21T18:07:17;33.10;;;27.97;;
19836;SDS011;10079;55.740;37.662;2022-08-21T18:09:57;28.60;;;24.93;;
19836;SDS011;10079;55.740;37.662;2022-08-21T18:12:42;25.07;;;22.23;;
19836;SDS011;10079;55.740;37.662;2022-08-21T18:15:22;27.73;;;22.90;;
19836;SDS011;10079;55.740;37.662;2022-08-21T18:18:06;27.13;;;21.30;;
19836;SDS011;10079;55.740;37.662;2022-08-21T18:20:47;24.13;;;20.90;;
19836;SDS011;10079;55.740;37.662;2022-08-21T18:23:31;23.60;;;19.93;;
19836;SDS011;10079;55.740;37.662;2022-08-21T18:26:13;22.30;;;18.73;;
19836;SDS011;10079;55.740;37.662;2022-08-21T18:28:57;25.33;;;19.50;;
19836;SDS011;10079;55.740;37.662;2022-08-21T18:31:38;22.37;;;16.87;;
19836;SDS011;10079;55.740;37.662;2022-08-21T18:34:24;20.67;;;17.30;;
19836;SDS011;10079;55.740;37.662;2022-08-21T18:37:09;24.20;;;16.70;;
19836;SDS011;10079;55.740;37.662;2022-08-21T18:39:49;19.67;;;15.97;;
19836;SDS011;10079;55.740;37.662;2022-08-21T18:42:31;18.90;;;15.27;;
19836;SDS011;10079;55.740;37.662;2022-08-21T18:45:16;19.73;;;15.20;;
19836;SDS011;10079;55.740;37.662;2022-08-21T18:48:08;17.87;;;15.07;;
19836;SDS011;10079;55.740;37.662;2022-08-21T18:50:52;18.03;;;13.97;;
19836;SDS011;10079;55.740;37.662;2022-08-21T18:53:36;17.67;;;14.90;;
19836;SDS011;10079;55.740;37.662;2022-08-21T19:07:03;15.97;;;12.20;;
19836;SDS011;10079;55.740;37.662;2022-08-21T19:09:44;14.23;;;11.47;;
19836;SDS011;10079;55.740;37.662;2022-08-21T19:12:25;11.63;;;9.97;;
19836;SDS011;10079;55.740;37.662;2022-08-21T19:15:07;14.70;;;9.80;;
19836;SDS011;10079;55.740;37.662;2022-08-21T19:17:49;13.13;;;10.50;;
19836;SDS011;10079;55.740;37.662;2022-08-21T19:20:39;11.73;;;9.73;;
19836;SDS011;10079;55.740;37.662;2022-08-21T19:23:23;11.73;;;8.53;;
19836;SDS011;10079;55.740;37.662;2022-08-21T19:26:04;12.17;;;8.60;;
19836;SDS011;10079;55.740;37.662;2022-08-21T19:28:47;11.67;;;8.37;;
19836;SDS011;10079;55.740;37.662;2022-08-21T19:31:28;9.80;;;7.97;;
19836;SDS011;10079;55.740;37.662;2022-08-21T19:34:13;10.60;;;8.10;;
19836;SDS011;10079;55.740;37.662;2022-08-21T19:36:54;9.97;;;7.57;;
19836;SDS011;10079;55.740;37.662;2022-08-21T19:39:35;12.27;;;7.80;;
19836;SDS011;10079;55.740;37.662;2022-08-21T19:42:16;10.80;;;7.40;;
19836;SDS011;10079;55.740;37.662;2022-08-21T19:44:57;11.13;;;6.93;;
19836;SDS011;10079;55.740;37.662;2022-08-21T19:47:43;8.97;;;6.83;;
19836;SDS011;10079;55.740;37.662;2022-08-21T19:50:21;9.77;;;6.80;;
19836;SDS011;10079;55.740;37.662;2022-08-21T19:53:02;7.83;;;6.43;;